Time;durP1;ratioP1;P1;durP2;ratioP2;P2;SDS_P1;SDS_P2;PMS_P1;PMS_P2;Temp;Humidity;BMP_temperature;BMP_pressure;BME280_temperature;BME280_humidity;BME280_pressure;Samples;Min_cycle;Max_cycle;Signal;HPM_P1;HPM_P2
2022/09/24 00:00:08;;;;;;;;;;;14.30;81.60;;;;;;5073562;28;19996;-93
2022/09/24 00:02:34;;;;;;;;;;;14.30;82.00;;;;;;5073599;28;20002;-93
2022/09/24 00:04:59;;;;;;;;;;;14.30;82.20;;;;;;5073347;28;19942;-93
2022/09/24 00:07:25;;;;;;;;;;;14.30;82.30;;;;;;5073572;28;19950;-93
2022/09/24 00:09:50;;;;;;;;;;;14.30;82.30;;;;;;5073513;28;19980;-92
2022/09/24 00:12:17;;;;;;;;;;;14.30;82.40;;;;;;5073399;28;20316;-93
2022/09/24 00:14:43;;;;;;;;;;;14.30;83.30;;;;;;5073045;28;19972;-93
2022/09/24 00:17:08;;;;;;;;;;;14.20;83.50;;;;;;5073219;28;19969;-93
2022/09/24 00:19:34;;;;;;;;;;;14.20;83.90;;;;;;5073142;28;19948;-93
2022/09/24 00:21:59;;;;;;;;;;;14.10;84.10;;;;;;5073239;28;19943;-93
2022/09/24 00:27:10;;;;;;;;;;;14.10;84.20;;;;;;5073201;28;19990;-93
2022/09/24 00:29:36;;;;;;;;;;;14.10;84.20;;;;;;5055619;28;19947;-93
2022/09/24 00:32:02;;;;;;;;;;;14.10;83.90;;;;;;5076708;28;19983;-93
2022/09/24 00:34:28;;;;;;;;;;;14.10;84.00;;;;;;5076956;28;19935;-93
2022/09/24 00:36:53;;;;;;;;;;;14.00;84.10;;;;;;5076809;28;20460;-93
2022/09/24 00:39:19;;;;;;;;;;;13.90;84.80;;;;;;5076786;28;20370;-93
2022/09/24 00:41:47;;;;;;;;;;;13.90;85.10;;;;;;5076754;28;19946;-93
2022/09/24 00:44:31;;;;;;;;;;;13.90;85.10;;;;;;5076578;28;19950;-92
2022/09/24 00:46:57;;;;;;;;;;;13.90;84.80;;;;;;5076891;28;19948;-93
2022/09/24 00:49:23;;;;;;;;;;;13.90;84.80;;;;;;5076371;28;19944;-93
2022/09/24 00:51:51;;;;;;;;;;;13.90;84.80;;;;;;5076683;28;19964;-94
2022/09/24 00:54:27;;;;;;;;;;;13.90;84.60;;;;;;5076563;28;19938;-93
2022/09/24 00:56:53;;;;;;;;;;;13.90;84.00;;;;;;5076347;28;19963;-93
2022/09/24 00:59:21;;;;;;;;;;;14.00;83.80;;;;;;5076396;28;19942;-93
2022/09/24 01:01:47;;;;;;;;;;;13.90;83.40;;;;;;5076321;28;19940;-93
2022/09/24 01:04:13;;;;;;;;;;;13.90;83.50;;;;;;5076075;28;19949;-93
2022/09/24 01:06:39;;;;;;;;;;;13.90;83.60;;;;;;5076216;28;19967;-93
2022/09/24 01:09:04;;;;;;;;;;;14.00;83.70;;;;;;5076171;28;19953;-93
2022/09/24 01:11:48;;;;;;;;;;;14.00;83.50;;;;;;5076234;28;20411;-93
2022/09/24 01:14:38;;;;;;;;;;;14.00;83.60;;;;;;5076040;28;19988;-93
2022/09/24 01:17:12;;;;;;;;;;;14.00;83.80;;;;;;5075959;28;19979;-93
2022/09/24 01:19:48;;;;;;;;;;;14.00;84.30;;;;;;5076309;28;19949;-93
2022/09/24 01:22:26;;;;;;;;;;;13.90;84.70;;;;;;5075949;28;19941;-93
2022/09/24 01:24:57;;;;;;;;;;;13.90;84.80;;;;;;5075965;28;20415;-93
2022/09/24 01:27:22;;;;;;;;;;;13.90;84.50;;;;;;5075902;28;20392;-93
2022/09/24 01:29:54;;;;;;;;;;;13.90;83.90;;;;;;5075922;28;19946;-93
2022/09/24 01:32:27;;;;;;;;;;;13.90;83.90;;;;;;5076073;28;19945;-93
2022/09/24 01:34:56;;;;;;;;;;;13.90;83.90;;;;;;5075779;28;20600;-93
2022/09/24 01:37:23;;;;;;;;;;;13.90;84.00;;;;;;5075717;28;20301;-93
2022/09/24 01:39:50;;;;;;;;;;;13.90;83.80;;;;;;5075710;28;19957;-93
2022/09/24 01:42:17;;;;;;;;;;;13.90;83.90;;;;;;5074965;28;19947;-93
2022/09/24 01:44:43;;;;;;;;;;;14.00;83.80;;;;;;5075536;28;19939;-94
2022/09/24 01:47:11;;;;;;;;;;;14.00;83.90;;;;;;5057573;28;19967;-93
2022/09/24 01:49:36;;;;;;;;;;;14.00;84.10;;;;;;5075627;28;19942;-93
2022/09/24 01:52:04;;;;;;;;;;;14.00;84.30;;;;;;5075313;28;19986;-93
2022/09/24 01:54:49;;;;;;;;;;;14.00;84.00;;;;;;5075494;28;20378;-93
2022/09/24 01:57:17;;;;;;;;;;;13.90;83.60;;;;;;5075298;28;20071;-93
2022/09/24 02:00:01;;;;;;;;;;;13.90;83.70;;;;;;5075319;28;20035;-93
2022/09/24 02:02:34;;;;;;;;;;;13.90;83.90;;;;;;5075055;28;19944;-93
2022/09/24 02:05:06;;;;;;;;;;;13.70;84.70;;;;;;5075300;28;19937;-93
2022/09/24 02:07:34;;;;;;;;;;;13.80;84.90;;;;;;5075072;28;19944;-93
2022/09/24 02:10:00;;;;;;;;;;;13.90;84.80;;;;;;5075366;28;19941;-93
2022/09/24 02:12:34;;;;;;;;;;;13.90;84.80;;;;;;5074986;28;19943;-93
2022/09/24 02:15:10;;;;;;;;;;;13.90;85.40;;;;;;5074905;28;20508;-93
2022/09/24 02:17:38;;;;;;;;;;;13.90;85.30;;;;;;5074918;28;19956;-93
2022/09/24 02:20:06;;;;;;;;;;;13.90;85.10;;;;;;5074976;28;20382;-93
2022/09/24 02:22:31;;;;;;;;;;;13.90;85.00;;;;;;5074969;28;19943;-93
2022/09/24 02:24:58;;;;;;;;;;;13.90;85.40;;;;;;5074741;28;19941;-93
2022/09/24 02:27:28;;;;;;;;;;;13.80;86.50;;;;;;5074723;28;19942;-93
2022/09/24 02:29:54;;;;;;;;;;;13.80;86.60;;;;;;5074680;28;20080;-93
2022/09/24 02:32:20;;;;;;;;;;;13.90;86.30;;;;;;5074846;28;19940;-93
2022/09/24 02:34:48;;;;;;;;;;;13.80;86.10;;;;;;5074575;28;19940;-93
2022/09/24 02:37:15;;;;;;;;;;;13.80;86.30;;;;;;5074468;28;19962;-93
2022/09/24 02:39:41;;;;;;;;;;;13.90;85.80;;;;;;5074488;28;19941;-93
2022/09/24 02:42:08;;;;;;;;;;;13.90;85.30;;;;;;5074406;28;19993;-93
2022/09/24 02:44:35;;;;;;;;;;;13.90;85.30;;;;;;5074392;28;19938;-93
2022/09/24 02:47:01;;;;;;;;;;;13.80;85.10;;;;;;5074465;28;20079;-92
2022/09/24 02:49:27;;;;;;;;;;;13.70;85.30;;;;;;5056351;28;20044;-93
2022/09/24 02:51:52;;;;;;;;;;;13.60;85.50;;;;;;5074308;28;19964;-93
2022/09/24 02:54:18;;;;;;;;;;;13.60;86.10;;;;;;5073416;28;19946;-93
2022/09/24 02:56:43;;;;;;;;;;;13.60;86.30;;;;;;5074172;28;19966;-93
2022/09/24 02:59:09;;;;;;;;;;;13.60;86.10;;;;;;5074226;28;19939;-93
2022/09/24 03:01:35;;;;;;;;;;;13.60;86.30;;;;;;5074120;28;19937;-93
2022/09/24 03:04:01;;;;;;;;;;;13.60;86.30;;;;;;5074085;28;19939;-93
2022/09/24 03:06:26;;;;;;;;;;;13.60;86.20;;;;;;5074170;28;19943;-93
2022/09/24 03:08:52;;;;;;;;;;;13.60;85.80;;;;;;5074060;28;19944;-92
2022/09/24 03:11:20;;;;;;;;;;;13.60;85.80;;;;;;5074059;28;19940;-93
2022/09/24 03:13:46;;;;;;;;;;;13.60;85.70;;;;;;5073965;28;19939;-93
2022/09/24 03:16:11;;;;;;;;;;;13.60;85.20;;;;;;5073724;28;19999;-93
2022/09/24 03:18:37;;;;;;;;;;;13.70;85.10;;;;;;5073906;28;20459;-93
2022/09/24 03:21:04;;;;;;;;;;;13.70;85.10;;;;;;5073801;28;20296;-93
2022/09/24 03:23:30;;;;;;;;;;;13.60;85.10;;;;;;5061817;28;19953;-93
2022/09/24 03:25:55;;;;;;;;;;;13.60;85.20;;;;;;5036355;28;19948;-93
2022/09/24 03:28:21;;;;;;;;;;;13.60;85.10;;;;;;5053837;28;20001;-93
2022/09/24 03:30:59;;;;;;;;;;;13.70;84.90;;;;;;5053756;28;19940;-93
2022/09/24 03:33:35;;;;;;;;;;;13.80;84.60;;;;;;5053741;28;19940;-93
2022/09/24 03:36:02;;;;;;;;;;;13.80;85.00;;;;;;5053780;28;19943;-93
2022/09/24 03:38:28;;;;;;;;;;;13.90;84.60;;;;;;5053566;28;19959;-93
2022/09/24 03:40:54;;;;;;;;;;;13.80;84.50;;;;;;5053599;28;20407;-93
2022/09/24 03:43:20;;;;;;;;;;;13.90;84.10;;;;;;5053903;28;19979;-93
2022/09/24 03:45:45;;;;;;;;;;;13.90;83.20;;;;;;5053667;28;19980;-93
2022/09/24 03:48:11;;;;;;;;;;;13.80;82.90;;;;;;5053586;28;19942;-93
2022/09/24 03:50:37;;;;;;;;;;;13.80;82.60;;;;;;5053419;28;19944;-93
2022/09/24 03:53:02;;;;;;;;;;;13.90;83.10;;;;;;5053555;28;19945;-93
2022/09/24 03:55:28;;;;;;;;;;;13.90;83.20;;;;;;5053375;28;19942;-93
2022/09/24 03:57:53;;;;;;;;;;;13.90;83.00;;;;;;5053425;28;19969;-93
2022/09/24 04:00:19;;;;;;;;;;;13.90;83.00;;;;;;5053534;28;20312;-93
2022/09/24 04:02:45;;;;;;;;;;;13.90;81.80;;;;;;5053360;28;20397;-93
2022/09/24 04:05:10;;;;;;;;;;;14.00;82.80;;;;;;5054095;28;20354;-93
2022/09/24 04:07:36;;;;;;;;;;;14.10;82.80;;;;;;5057469;28;19954;-93
2022/09/24 04:10:01;;;;;;;;;;;14.00;82.70;;;;;;5057385;28;19937;-93
2022/09/24 04:12:27;;;;;;;;;;;14.10;82.80;;;;;;5065924;28;19945;-93
2022/09/24 04:14:53;;;;;;;;;;;14.00;82.90;;;;;;5076963;28;19981;-93
2022/09/24 04:17:19;;;;;;;;;;;13.90;83.50;;;;;;5077255;28;19972;-92
2022/09/24 04:19:44;;;;;;;;;;;13.80;83.90;;;;;;5077176;28;19940;-94
2022/09/24 04:22:10;;;;;;;;;;;13.80;84.40;;;;;;5077118;28;19940;-93
2022/09/24 04:24:35;;;;;;;;;;;13.80;84.70;;;;;;5076952;28;19993;-93
2022/09/24 04:27:01;;;;;;;;;;;13.70;84.90;;;;;;5076993;28;19942;-93
2022/09/24 04:29:26;;;;;;;;;;;13.60;85.40;;;;;;5076970;28;20468;-93
2022/09/24 04:31:52;;;;;;;;;;;13.60;85.00;;;;;;5076931;28;19947;-94
2022/09/24 04:34:18;;;;;;;;;;;13.60;85.20;;;;;;5076874;28;20021;-93
2022/09/24 04:36:43;;;;;;;;;;;13.60;85.10;;;;;;5076853;28;19961;-93
2022/09/24 04:39:09;;;;;;;;;;;13.60;85.70;;;;;;5076798;28;19940;-93
2022/09/24 04:41:36;;;;;;;;;;;13.50;85.90;;;;;;5076771;28;19957;-94
2022/09/24 04:44:04;;;;;;;;;;;13.60;85.80;;;;;;5076705;28;20424;-93
2022/09/24 04:46:32;;;;;;;;;;;13.60;85.30;;;;;;5076887;28;19946;-93
2022/09/24 04:48:57;;;;;;;;;;;13.70;85.00;;;;;;5076568;28;19937;-93
2022/09/24 04:51:23;;;;;;;;;;;13.80;85.00;;;;;;5076466;28;19962;-93
2022/09/24 04:53:49;;;;;;;;;;;13.80;84.80;;;;;;5076489;28;19941;-93
2022/09/24 04:56:15;;;;;;;;;;;13.80;84.60;;;;;;5076566;28;19943;-93
2022/09/24 04:58:40;;;;;;;;;;;13.90;84.20;;;;;;5076385;28;20412;-93
2022/09/24 05:01:06;;;;;;;;;;;13.90;84.80;;;;;;5062938;28;19952;-92
2022/09/24 05:03:32;;;;;;;;;;;13.90;84.90;;;;;;5056374;28;20029;-93
2022/09/24 05:05:57;;;;;;;;;;;13.90;84.80;;;;;;5056316;28;20013;-93
2022/09/24 05:08:23;;;;;;;;;;;13.90;84.70;;;;;;5056213;28;19949;-92
2022/09/24 05:10:49;;;;;;;;;;;13.90;84.40;;;;;;5056248;28;19940;-94
2022/09/24 05:13:14;;;;;;;;;;;14.00;84.40;;;;;;5056158;28;19962;-93
2022/09/24 05:15:40;;;;;;;;;;;14.00;84.20;;;;;;5070605;28;19983;-93
2022/09/24 05:18:05;;;;;;;;;;;14.00;84.40;;;;;;5074982;28;19962;-93
2022/09/24 05:20:31;;;;;;;;;;;14.00;85.10;;;;;;5076263;28;20037;-93
2022/09/24 05:22:57;;;;;;;;;;;13.90;85.20;;;;;;5075979;28;19942;-93
2022/09/24 05:25:22;;;;;;;;;;;13.90;85.10;;;;;;5076035;28;19950;-93
2022/09/24 05:27:49;;;;;;;;;;;14.00;85.10;;;;;;5075919;28;19948;-93
2022/09/24 05:30:15;;;;;;;;;;;14.00;85.10;;;;;;5075826;28;19936;-93
2022/09/24 05:32:41;;;;;;;;;;;14.00;84.90;;;;;;5076105;28;20020;-93
2022/09/24 05:35:08;;;;;;;;;;;14.10;84.80;;;;;;5075893;28;20083;-93
2022/09/24 05:37:34;;;;;;;;;;;14.10;84.80;;;;;;5075616;28;20008;-93
2022/09/24 05:40:46;;;;;;;;;;;14.20;85.10;;;;;;5075708;28;19945;-93
2022/09/24 05:42:45;;;;;;;;;;;14.20;85.10;;;;;;5075590;28;20039;-92
2022/09/24 05:45:13;;;;;;;;;;;14.20;84.50;;;;;;5075364;28;19973;-92
2022/09/24 05:47:38;;;;;;;;;;;14.20;85.30;;;;;;5075669;28;19948;-92
2022/09/24 05:50:04;;;;;;;;;;;14.20;85.90;;;;;;5075508;28;20311;-93
2022/09/24 05:52:29;;;;;;;;;;;14.30;85.90;;;;;;5075289;28;20095;-92
2022/09/24 05:54:56;;;;;;;;;;;14.40;85.50;;;;;;5075441;28;19939;-93
2022/09/24 05:57:21;;;;;;;;;;;14.50;85.00;;;;;;5075534;28;20010;-92
2022/09/24 05:59:47;;;;;;;;;;;14.60;83.60;;;;;;5075446;28;19943;-92
2022/09/24 06:02:12;;;;;;;;;;;14.60;83.80;;;;;;5069894;28;19962;-92
2022/09/24 06:04:38;;;;;;;;;;;14.70;84.00;;;;;;5075252;28;19948;-92
2022/09/24 06:07:03;;;;;;;;;;;14.80;85.10;;;;;;5075257;28;19949;-92
2022/09/24 06:09:29;;;;;;;;;;;14.90;84.50;;;;;;5075171;28;19938;-92
2022/09/24 06:11:55;;;;;;;;;;;15.00;82.80;;;;;;5075071;28;19940;-93
2022/09/24 06:14:21;;;;;;;;;;;15.10;82.70;;;;;;5074947;28;19975;-92
2022/09/24 06:16:46;;;;;;;;;;;15.20;82.40;;;;;;5074951;28;19963;-92
2022/09/24 06:19:12;;;;;;;;;;;15.30;81.70;;;;;;5075111;28;19942;-92
2022/09/24 06:21:37;;;;;;;;;;;15.30;81.50;;;;;;5074924;28;19990;-92
2022/09/24 06:24:03;;;;;;;;;;;15.30;81.70;;;;;;5074816;28;19947;-92
2022/09/24 06:26:29;;;;;;;;;;;15.40;81.60;;;;;;5074847;28;19942;-92
2022/09/24 06:28:55;;;;;;;;;;;15.50;82.10;;;;;;5074697;28;19939;-93
2022/09/24 06:31:21;;;;;;;;;;;15.60;81.50;;;;;;5074653;28;19952;-92
2022/09/24 06:33:46;;;;;;;;;;;15.60;80.80;;;;;;5074680;28;19942;-93
2022/09/24 06:36:12;;;;;;;;;;;15.70;79.70;;;;;;5074680;28;19941;-93
2022/09/24 06:38:39;;;;;;;;;;;15.80;79.30;;;;;;5074323;28;20428;-93
2022/09/24 06:41:05;;;;;;;;;;;15.80;79.00;;;;;;5074657;28;19938;-92
2022/09/24 06:43:31;;;;;;;;;;;15.90;78.60;;;;;;5074618;28;19944;-93
2022/09/24 06:45:57;;;;;;;;;;;16.00;78.10;;;;;;5074776;28;19972;-92
2022/09/24 06:48:23;;;;;;;;;;;16.20;77.50;;;;;;5074919;28;19977;-94
2022/09/24 06:50:50;;;;;;;;;;;16.30;76.90;;;;;;5075416;28;20343;-93
2022/09/24 06:53:16;;;;;;;;;;;16.40;76.00;;;;;;5076249;28;19941;-93
2022/09/24 06:55:41;;;;;;;;;;;16.50;75.80;;;;;;5076085;28;19947;-94
2022/09/24 06:58:08;;;;;;;;;;;16.60;75.50;;;;;;5075724;28;20099;-93
2022/09/24 07:00:34;;;;;;;;;;;16.80;75.30;;;;;;5075411;28;19961;-93
2022/09/24 07:02:59;;;;;;;;;;;16.80;74.50;;;;;;5075966;28;20293;-93
2022/09/24 07:05:25;;;;;;;;;;;16.90;73.90;;;;;;5075730;28;19948;-93
2022/09/24 07:07:51;;;;;;;;;;;16.90;73.50;;;;;;5075792;28;19943;-93
2022/09/24 07:10:16;;;;;;;;;;;17.00;73.30;;;;;;5075147;28;19981;-93
2022/09/24 07:12:42;;;;;;;;;;;17.10;73.30;;;;;;5057332;28;19954;-93
2022/09/24 07:15:08;;;;;;;;;;;17.10;72.70;;;;;;5101847;22;20455;-93
2022/09/24 07:17:33;;;;;;;;;;;17.20;72.30;;;;;;5115670;28;19972;-93
2022/09/24 07:19:59;;;;;;;;;;;17.30;72.00;;;;;;5115632;28;20014;-93
2022/09/24 07:22:24;;;;;;;;;;;17.30;71.50;;;;;;5116536;28;20399;-93
2022/09/24 07:24:50;;;;;;;;;;;17.40;71.20;;;;;;5115931;28;19945;-93
2022/09/24 07:27:16;;;;;;;;;;;17.50;70.40;;;;;;5116215;28;19938;-93
2022/09/24 07:29:41;;;;;;;;;;;17.50;70.00;;;;;;5116007;28;19939;-93
2022/09/24 07:32:07;;;;;;;;;;;17.70;70.20;;;;;;5115870;28;20415;-93
2022/09/24 07:34:32;;;;;;;;;;;17.80;69.70;;;;;;5108486;28;20494;-93
2022/09/24 07:36:58;;;;;;;;;;;17.80;69.80;;;;;;5114591;28;20418;-93
2022/09/24 07:39:24;;;;;;;;;;;17.90;69.30;;;;;;5114284;28;19969;-93
2022/09/24 07:41:51;;;;;;;;;;;17.90;68.80;;;;;;5114017;28;20385;-93
2022/09/24 07:44:19;;;;;;;;;;;17.90;68.40;;;;;;5114662;28;19967;-94
2022/09/24 07:46:48;;;;;;;;;;;18.00;68.00;;;;;;5114430;28;19943;-93
2022/09/24 07:49:13;;;;;;;;;;;18.00;67.80;;;;;;5114321;28;19941;-93
2022/09/24 07:51:39;;;;;;;;;;;18.00;67.50;;;;;;5114192;28;19951;-93
2022/09/24 07:54:05;;;;;;;;;;;18.00;67.50;;;;;;5114291;28;19945;-93
2022/09/24 07:56:31;;;;;;;;;;;18.00;67.30;;;;;;5114151;28;20417;-93
2022/09/24 07:58:56;;;;;;;;;;;18.10;67.70;;;;;;5110827;28;19946;-93
2022/09/24 08:01:23;;;;;;;;;;;18.20;66.60;;;;;;5114240;28;19938;-93
2022/09/24 08:03:50;;;;;;;;;;;18.30;65.80;;;;;;5114278;28;20009;-93
2022/09/24 08:06:16;;;;;;;;;;;18.40;65.20;;;;;;5114165;28;19963;-93
2022/09/24 08:08:42;;;;;;;;;;;18.50;64.40;;;;;;5114049;28;20299;-93
2022/09/24 08:11:09;;;;;;;;;;;18.60;64.50;;;;;;5112201;28;19994;-93
2022/09/24 08:13:35;;;;;;;;;;;18.70;64.30;;;;;;5114188;28;19942;-93
2022/09/24 08:16:01;;;;;;;;;;;18.80;64.00;;;;;;5113856;28;20003;-93
2022/09/24 08:18:27;;;;;;;;;;;19.00;63.10;;;;;;5114271;28;20418;-93
2022/09/24 08:20:53;;;;;;;;;;;19.10;62.90;;;;;;5114553;28;19939;-93
2022/09/24 08:23:19;;;;;;;;;;;19.30;62.10;;;;;;5114177;28;20385;-93
2022/09/24 08:25:47;;;;;;;;;;;19.40;61.90;;;;;;5114579;28;19950;-93
2022/09/24 08:28:15;;;;;;;;;;;19.50;61.60;;;;;;5114166;28;19945;-93
2022/09/24 08:30:42;;;;;;;;;;;19.70;60.90;;;;;;5113953;28;19982;-93
2022/09/24 08:33:08;;;;;;;;;;;19.70;59.80;;;;;;5114246;28;20039;-93
2022/09/24 08:35:33;;;;;;;;;;;19.70;60.30;;;;;;5114002;28;20030;-93
2022/09/24 08:38:02;;;;;;;;;;;19.80;59.90;;;;;;5114032;28;20108;-93
2022/09/24 08:40:38;;;;;;;;;;;19.80;60.40;;;;;;5113918;28;19947;-93
2022/09/24 08:43:21;;;;;;;;;;;20.00;59.80;;;;;;5113761;28;19944;-93
2022/09/24 08:48:41;;;;;;;;;;;20.30;57.90;;;;;;5114026;28;19982;-93
2022/09/24 08:51:11;;;;;;;;;;;20.40;57.80;;;;;;5113828;28;19967;-93
2022/09/24 08:53:45;;;;;;;;;;;20.40;56.90;;;;;;5117099;28;19947;-93
2022/09/24 08:56:11;;;;;;;;;;;20.40;56.40;;;;;;5117638;28;19988;-93
2022/09/24 08:58:39;;;;;;;;;;;20.40;56.90;;;;;;5117161;28;20003;-93
2022/09/24 09:01:10;;;;;;;;;;;20.40;57.20;;;;;;5117089;28;19935;-94
2022/09/24 09:03:39;;;;;;;;;;;20.40;57.20;;;;;;5117204;28;19943;-94
2022/09/24 09:06:11;;;;;;;;;;;20.50;57.00;;;;;;5116974;28;20070;-93
2022/09/24 09:08:52;;;;;;;;;;;20.50;57.50;;;;;;5116777;28;19935;-93
2022/09/24 09:11:20;;;;;;;;;;;20.50;57.60;;;;;;5117411;28;20285;-93
2022/09/24 09:13:53;;;;;;;;;;;20.50;57.90;;;;;;5117202;28;19946;-93
2022/09/24 09:16:37;;;;;;;;;;;20.60;57.90;;;;;;5107982;28;20449;-93
2022/09/24 09:19:04;;;;;;;;;;;20.60;56.40;;;;;;5117028;28;19954;-93
2022/09/24 09:21:36;;;;;;;;;;;20.60;57.10;;;;;;5117130;28;19943;-94
2022/09/24 09:24:02;;;;;;;;;;;20.70;57.10;;;;;;5117310;28;19960;-93
2022/09/24 09:26:27;;;;;;;;;;;20.70;57.20;;;;;;5116949;28;19940;-93
2022/09/24 09:28:56;;;;;;;;;;;20.70;56.60;;;;;;5116949;28;19996;-94
2022/09/24 09:31:22;;;;;;;;;;;20.80;57.10;;;;;;5117405;28;19944;-93
2022/09/24 09:34:06;;;;;;;;;;;20.80;57.00;;;;;;5117351;28;19941;-94
2022/09/24 09:36:42;;;;;;;;;;;20.80;56.50;;;;;;5116163;28;19940;-93
2022/09/24 09:39:27;;;;;;;;;;;20.80;56.40;;;;;;5116427;28;19946;-93
2022/09/24 09:42:01;;;;;;;;;;;20.80;56.40;;;;;;5115989;28;20327;-94
2022/09/24 09:44:28;;;;;;;;;;;20.70;56.00;;;;;;5116019;28;19950;-93
2022/09/24 09:47:03;;;;;;;;;;;20.60;56.50;;;;;;5115842;28;19984;-93
2022/09/24 09:49:32;;;;;;;;;;;20.50;56.60;;;;;;5115929;28;19935;-93
2022/09/24 09:52:01;;;;;;;;;;;20.40;56.10;;;;;;5115859;28;19963;-93
2022/09/24 09:54:36;;;;;;;;;;;20.30;55.90;;;;;;5115463;28;19946;-93
2022/09/24 09:57:02;;;;;;;;;;;20.30;56.40;;;;;;5115337;28;19956;-93
2022/09/24 09:59:28;;;;;;;;;;;20.20;56.50;;;;;;5115537;28;19963;-93
2022/09/24 10:01:55;;;;;;;;;;;20.20;56.80;;;;;;5115659;28;19946;-93
2022/09/24 10:04:38;;;;;;;;;;;20.10;57.00;;;;;;5114836;28;20401;-93
2022/09/24 10:07:05;;;;;;;;;;;20.00;57.20;;;;;;5112734;28;19949;-93
2022/09/24 10:09:31;;;;;;;;;;;20.10;57.40;;;;;;5115047;28;19964;-93
2022/09/24 10:12:12;;;;;;;;;;;20.00;57.60;;;;;;5114484;28;19946;-93
2022/09/24 10:14:37;;;;;;;;;;;20.00;57.60;;;;;;5113298;28;20071;-93
2022/09/24 10:17:05;;;;;;;;;;;20.00;57.90;;;;;;5112371;28;20062;-93
2022/09/24 10:19:35;;;;;;;;;;;19.90;58.20;;;;;;5108183;28;19956;-93
2022/09/24 10:22:10;;;;;;;;;;;19.90;57.70;;;;;;5109323;28;20047;-93
2022/09/24 10:24:36;;;;;;;;;;;19.80;58.30;;;;;;5114716;28;19954;-93
2022/09/24 10:27:09;;;;;;;;;;;19.80;58.60;;;;;;5114998;28;19997;-93
2022/09/24 10:32:20;;;;;;;;;;;19.80;59.30;;;;;;5115209;28;19994;-93
2022/09/24 10:34:56;;;;;;;;;;;19.90;59.00;;;;;;5114900;28;20378;-93
2022/09/24 10:37:22;;;;;;;;;;;19.90;58.90;;;;;;5115041;28;19959;-93
2022/09/24 10:39:57;;;;;;;;;;;19.90;58.90;;;;;;5110307;28;19946;-93
2022/09/24 10:42:24;;;;;;;;;;;19.80;59.20;;;;;;5114433;28;20030;-93
2022/09/24 10:44:50;;;;;;;;;;;19.80;59.20;;;;;;5114787;28;19943;-93
2022/09/24 10:47:24;;;;;;;;;;;19.80;59.10;;;;;;5114623;28;20299;-93
2022/09/24 10:50:23;;;;;;;;;;;19.80;59.10;;;;;;5114647;28;20431;-93
2022/09/24 10:52:52;;;;;;;;;;;19.80;59.50;;;;;;5069781;28;19938;-93
2022/09/24 10:55:30;;;;;;;;;;;19.80;59.60;;;;;;5114577;28;19981;-93
2022/09/24 10:58:14;;;;;;;;;;;19.70;59.70;;;;;;5111894;28;19954;-93
2022/09/24 11:00:45;;;;;;;;;;;19.70;59.90;;;;;;5114158;28;19947;-93
2022/09/24 11:03:16;;;;;;;;;;;19.70;59.40;;;;;;5114197;28;19979;-93
2022/09/24 11:06:01;;;;;;;;;;;19.60;59.70;;;;;;5114348;28;19983;-92
2022/09/24 11:08:36;;;;;;;;;;;19.60;59.90;;;;;;5112912;28;19943;-93
2022/09/24 11:11:08;;;;;;;;;;;19.50;60.20;;;;;;5114556;28;19943;-92
2022/09/24 11:13:40;;;;;;;;;;;19.50;60.70;;;;;;5114051;28;19951;-93
2022/09/24 11:16:12;;;;;;;;;;;19.40;60.70;;;;;;5113253;28;19979;-94
2022/09/24 11:18:46;;;;;;;;;;;19.40;61.50;;;;;;5108978;28;19963;-93
2022/09/24 11:21:20;;;;;;;;;;;19.40;61.70;;;;;;5093791;28;19951;-93
2022/09/24 11:24:04;;;;;;;;;;;19.50;61.80;;;;;;5105696;28;19984;-93
2022/09/24 11:26:39;;;;;;;;;;;19.50;61.60;;;;;;5113699;28;20400;-93
2022/09/24 11:29:10;;;;;;;;;;;19.70;61.70;;;;;;5093890;28;19970;-93
2022/09/24 11:31:47;;;;;;;;;;;19.80;61.30;;;;;;5093874;28;19944;-93
2022/09/24 11:34:16;;;;;;;;;;;19.80;61.10;;;;;;5106189;28;19939;-93
2022/09/24 11:36:44;;;;;;;;;;;19.90;61.10;;;;;;5113945;28;20425;-93
2022/09/24 11:39:15;;;;;;;;;;;20.10;60.70;;;;;;5113952;28;19986;-93
2022/09/24 11:41:49;;;;;;;;;;;20.30;60.20;;;;;;5113746;28;19985;-93
2022/09/24 11:44:21;;;;;;;;;;;20.30;60.10;;;;;;5113916;28;19946;-93
2022/09/24 11:46:46;;;;;;;;;;;20.50;60.00;;;;;;5113856;28;20468;-93
2022/09/24 11:49:18;;;;;;;;;;;20.50;58.80;;;;;;5113547;28;19944;-93
2022/09/24 11:52:01;;;;;;;;;;;20.60;58.40;;;;;;5104794;28;20459;-93
2022/09/24 11:54:33;;;;;;;;;;;20.70;57.80;;;;;;5093863;28;19945;-93
2022/09/24 11:57:22;;;;;;;;;;;20.60;57.30;;;;;;5113415;28;20341;-93
2022/09/24 11:59:52;;;;;;;;;;;20.70;57.70;;;;;;5064466;28;20015;-93
2022/09/24 12:02:37;;;;;;;;;;;20.70;58.20;;;;;;5093606;28;19944;-93
2022/09/24 12:05:05;;;;;;;;;;;20.70;58.90;;;;;;5098745;28;19941;-93
2022/09/24 12:07:43;;;;;;;;;;;20.60;58.30;;;;;;5113619;28;19937;-93
2022/09/24 12:10:28;;;;;;;;;;;20.60;58.50;;;;;;5113342;28;19948;-93
2022/09/24 12:12:58;;;;;;;;;;;20.50;58.80;;;;;;5113645;28;19936;-93
2022/09/24 12:15:26;;;;;;;;;;;20.50;58.80;;;;;;5113247;28;20017;-93
2022/09/24 12:18:01;;;;;;;;;;;20.30;59.00;;;;;;5113580;28;19956;-93
2022/09/24 12:20:28;;;;;;;;;;;20.30;59.40;;;;;;5113758;28;19944;-93
2022/09/24 12:22:58;;;;;;;;;;;20.20;59.50;;;;;;5110002;28;19948;-93
2022/09/24 12:25:28;;;;;;;;;;;20.10;59.80;;;;;;5113474;28;19941;-93
2022/09/24 12:27:54;;;;;;;;;;;20.10;60.10;;;;;;5116938;28;20396;-93
2022/09/24 12:33:13;;;;;;;;;;;20.30;61.40;;;;;;5117129;28;20318;-93
2022/09/24 12:35:39;;;;;;;;;;;20.30;63.20;;;;;;5117244;28;20386;-93
2022/09/24 12:38:11;;;;;;;;;;;20.30;63.50;;;;;;5117319;28;19958;-93
2022/09/24 12:40:48;;;;;;;;;;;20.20;64.00;;;;;;5117260;28;19935;-93
2022/09/24 12:43:32;;;;;;;;;;;20.10;64.20;;;;;;5116906;28;19945;-93
2022/09/24 12:46:00;;;;;;;;;;;20.10;64.10;;;;;;5117295;28;19992;-93
2022/09/24 12:48:26;;;;;;;;;;;20.10;64.80;;;;;;5117142;28;19966;-93
2022/09/24 12:50:59;;;;;;;;;;;20.10;65.40;;;;;;5116853;28;20010;-93
2022/09/24 12:53:31;;;;;;;;;;;20.20;65.70;;;;;;5115074;28;20397;-93
2022/09/24 12:55:58;;;;;;;;;;;20.20;65.40;;;;;;5116910;28;20024;-93
2022/09/24 12:58:36;;;;;;;;;;;20.30;66.10;;;;;;5116843;28;19965;-93
2022/09/24 13:01:25;;;;;;;;;;;20.30;65.60;;;;;;5116883;28;20408;-93
2022/09/24 13:04:01;;;;;;;;;;;20.30;65.20;;;;;;5101845;28;19996;-92
2022/09/24 13:06:36;;;;;;;;;;;20.30;65.40;;;;;;5116644;28;19950;-92
2022/09/24 13:09:22;;;;;;;;;;;20.30;66.00;;;;;;5116809;28;19945;-93
2022/09/24 13:11:48;;;;;;;;;;;20.10;66.00;;;;;;5115487;28;20287;-93
2022/09/24 13:14:14;;;;;;;;;;;20.10;66.20;;;;;;5113721;28;19945;-93
2022/09/24 13:16:41;;;;;;;;;;;20.00;66.10;;;;;;5095927;28;19940;-93
2022/09/24 13:19:23;;;;;;;;;;;19.90;65.40;;;;;;5096082;28;19942;-93
2022/09/24 13:21:56;;;;;;;;;;;19.90;65.80;;;;;;5095845;28;19947;-93
2022/09/24 13:24:24;;;;;;;;;;;19.80;65.90;;;;;;5095914;28;19939;-93
2022/09/24 13:26:50;;;;;;;;;;;19.80;65.90;;;;;;5095824;28;19942;-93
2022/09/24 13:29:23;;;;;;;;;;;19.90;65.90;;;;;;5095746;28;19948;-93
2022/09/24 13:31:51;;;;;;;;;;;19.90;65.80;;;;;;5095609;28;19942;-93
2022/09/24 13:34:26;;;;;;;;;;;19.90;65.80;;;;;;5095794;28;19939;-93
2022/09/24 13:37:09;;;;;;;;;;;20.00;66.30;;;;;;5095946;28;20021;-93
2022/09/24 13:40:10;;;;;;;;;;;20.00;66.20;;;;;;5095216;28;20041;-93
2022/09/24 13:42:36;;;;;;;;;;;20.00;65.40;;;;;;5013327;28;19959;-93
2022/09/24 13:45:03;;;;;;;;;;;20.00;65.40;;;;;;5078419;28;19944;-93
2022/09/24 13:47:41;;;;;;;;;;;20.00;66.00;;;;;;5095687;28;20076;-93
2022/09/24 13:50:07;;;;;;;;;;;20.00;65.90;;;;;;5095360;28;20019;-93
2022/09/24 13:52:34;;;;;;;;;;;20.00;66.40;;;;;;5094963;28;20095;-93
2022/09/24 13:55:15;;;;;;;;;;;20.00;65.20;;;;;;5095423;28;19942;-93
2022/09/24 13:57:42;;;;;;;;;;;20.00;65.80;;;;;;5095615;28;19996;-92
2022/09/24 14:00:11;;;;;;;;;;;19.90;64.20;;;;;;5095566;28;19949;-93
2022/09/24 14:02:38;;;;;;;;;;;19.90;65.40;;;;;;5094929;28;19941;-93
2022/09/24 14:05:06;;;;;;;;;;;19.80;64.90;;;;;;5095017;28;19950;-93
2022/09/24 14:07:31;;;;;;;;;;;19.80;63.70;;;;;;5095193;28;19938;-93
2022/09/24 14:10:01;;;;;;;;;;;19.70;64.10;;;;;;5095081;28;19945;-93
2022/09/24 14:12:26;;;;;;;;;;;19.80;65.00;;;;;;5076874;28;20450;-93
2022/09/24 14:14:56;;;;;;;;;;;19.80;66.70;;;;;;5076728;28;19980;-93
2022/09/24 14:17:23;;;;;;;;;;;19.80;66.60;;;;;;5095313;28;19990;-93
2022/09/24 14:19:52;;;;;;;;;;;19.80;66.80;;;;;;5094943;28;19986;-93
2022/09/24 14:22:21;;;;;;;;;;;19.80;67.40;;;;;;5094724;28;19941;-93
2022/09/24 14:24:52;;;;;;;;;;;19.90;67.40;;;;;;5076702;28;20419;-93
2022/09/24 14:27:20;;;;;;;;;;;19.80;66.80;;;;;;5094821;28;20325;-93
2022/09/24 14:29:45;;;;;;;;;;;19.80;67.30;;;;;;5094761;28;19939;-93
2022/09/24 14:32:20;;;;;;;;;;;19.80;67.50;;;;;;5094468;28;20542;-93
2022/09/24 14:34:49;;;;;;;;;;;19.80;66.20;;;;;;5094380;28;19948;-93
2022/09/24 14:37:17;;;;;;;;;;;19.70;66.10;;;;;;5094366;28;19996;-94